sensor_id;sensor_type;location;lat;lon;timestamp;temperature;humidity
24518;DHT22;12678;51.336;12.406;2022-09-01T00:01:13;15.50;99.90
24518;DHT22;12678;51.336;12.406;2022-09-01T00:03:42;15.60;99.90
24518;DHT22;12678;51.336;12.406;2022-09-01T00:06:16;15.60;99.90
24518;DHT22;12678;51.336;12.406;2022-09-01T00:08:54;15.60;99.90
24518;DHT22;12678;51.336;12.406;2022-09-01T00:11:21;15.60;99.90
24518;DHT22;12678;51.336;12.406;2022-09-01T00:13:47;15.50;99.90
24518;DHT22;12678;51.336;12.406;2022-09-01T00:16:14;15.50;99.90
24518;DHT22;12678;51.336;12.406;2022-09-01T00:18:41;15.50;99.90
24518;DHT22;12678;51.336;12.406;2022-09-01T00:21:08;15.40;99.90
24518;DHT22;12678;51.336;12.406;2022-09-01T00:23:34;15.40;99.90
24518;DHT22;12678;51.336;12.406;2022-09-01T00:25:59;15.40;99.90
24518;DHT22;12678;51.336;12.406;2022-09-01T00:28:25;15.40;99.90
24518;DHT22;12678;51.336;12.406;2022-09-01T00:30:50;15.40;99.90
24518;DHT22;12678;51.336;12.406;2022-09-01T00:33:16;15.50;99.90
24518;DHT22;12678;51.336;12.406;2022-09-01T00:35:41;15.40;99.90
24518;DHT22;12678;51.336;12.406;2022-09-01T00:38:07;15.40;99.90
24518;DHT22;12678;51.336;12.406;2022-09-01T00:40:32;15.40;99.90
24518;DHT22;12678;51.336;12.406;2022-09-01T00:42:58;15.40;99.90
24518;DHT22;12678;51.336;12.406;2022-09-01T00:45:24;15.50;99.90
24518;DHT22;12678;51.336;12.406;2022-09-01T00:47:50;15.40;99.90
24518;DHT22;12678;51.336;12.406;2022-09-01T00:50:16;15.40;99.90
24518;DHT22;12678;51.336;12.406;2022-09-01T00:52:47;15.40;99.90
24518;DHT22;12678;51.336;12.406;2022-09-01T00:55:15;15.30;99.90
24518;DHT22;12678;51.336;12.406;2022-09-01T00:57:42;15.20;99.90
24518;DHT22;12678;51.336;12.406;2022-09-01T01:00:11;15.20;99.90
24518;DHT22;12678;51.336;12.406;2022-09-01T01:02:37;15.20;99.90
24518;DHT22;12678;51.336;12.406;2022-09-01T01:05:04;15.20;99.90
24518;DHT22;12678;51.336;12.406;2022-09-01T01:07:30;15.20;99.90
24518;DHT22;12678;51.336;12.406;2022-09-01T01:09:59;15.20;99.90
24518;DHT22;12678;51.336;12.406;2022-09-01T01:12:25;15.30;99.90
24518;DHT22;12678;51.336;12.406;2022-09-01T01:14:54;15.30;99.90
24518;DHT22;12678;51.336;12.406;2022-09-01T01:17:21;15.20;99.90
24518;DHT22;12678;51.336;12.406;2022-09-01T01:19:47;15.20;99.90
24518;DHT22;12678;51.336;12.406;2022-09-01T01:25:44;15.00;99.90
24518;DHT22;12678;51.336;12.406;2022-09-01T01:30:44;14.80;99.90
24518;DHT22;12678;51.336;12.406;2022-09-01T01:33:09;14.80;99.90
24518;DHT22;12678;51.336;12.406;2022-09-01T01:35:35;14.80;99.90
24518;DHT22;12678;51.336;12.406;2022-09-01T01:38:02;14.80;99.90
24518;DHT22;12678;51.336;12.406;2022-09-01T01:40:31;14.80;99.90
24518;DHT22;12678;51.336;12.406;2022-09-01T01:42:57;14.80;99.90
24518;DHT22;12678;51.336;12.406;2022-09-01T01:45:25;14.80;99.90
24518;DHT22;12678;51.336;12.406;2022-09-01T01:47:51;14.80;99.90
24518;DHT22;12678;51.336;12.406;2022-09-01T01:50:27;14.80;99.90
24518;DHT22;12678;51.336;12.406;2022-09-01T01:53:02;14.70;99.90
24518;DHT22;12678;51.336;12.406;2022-09-01T01:55:28;14.50;99.90
24518;DHT22;12678;51.336;12.406;2022-09-01T01:57:55;14.40;99.90
24518;DHT22;12678;51.336;12.406;2022-09-01T02:00:22;14.40;99.90
24518;DHT22;12678;51.336;12.406;2022-09-01T02:02:49;14.40;99.90
24518;DHT22;12678;51.336;12.406;2022-09-01T02:05:21;14.50;99.90
24518;DHT22;12678;51.336;12.406;2022-09-01T02:07:56;14.50;99.90
24518;DHT22;12678;51.336;12.406;2022-09-01T02:10:25;14.60;99.90
24518;DHT22;12678;51.336;12.406;2022-09-01T02:12:51;14.40;99.90
24518;DHT22;12678;51.336;12.406;2022-09-01T02:15:17;14.30;99.90
24518;DHT22;12678;51.336;12.406;2022-09-01T02:17:43;14.30;99.90
24518;DHT22;12678;51.336;12.406;2022-09-01T02:20:09;14.30;99.90
24518;DHT22;12678;51.336;12.406;2022-09-01T02:22:34;14.30;99.90
24518;DHT22;12678;51.336;12.406;2022-09-01T02:25:05;14.20;99.90
24518;DHT22;12678;51.336;12.406;2022-09-01T02:27:31;14.30;99.90
24518;DHT22;12678;51.336;12.406;2022-09-01T02:29:58;14.20;99.90
24518;DHT22;12678;51.336;12.406;2022-09-01T02:32:24;14.30;99.90
24518;DHT22;12678;51.336;12.406;2022-09-01T02:34:49;14.20;99.90
24518;DHT22;12678;51.336;12.406;2022-09-01T02:37:19;14.20;99.90
24518;DHT22;12678;51.336;12.406;2022-09-01T02:39:52;14.20;99.90
24518;DHT22;12678;51.336;12.406;2022-09-01T02:42:19;14.10;99.90
24518;DHT22;12678;51.336;12.406;2022-09-01T02:44:54;14.10;99.90
24518;DHT22;12678;51.336;12.406;2022-09-01T02:47:20;14.10;99.90
24518;DHT22;12678;51.336;12.406;2022-09-01T02:49:48;14.10;99.90
24518;DHT22;12678;51.336;12.406;2022-09-01T02:52:14;14.10;99.90
24518;DHT22;12678;51.336;12.406;2022-09-01T02:54:42;14.20;99.90
24518;DHT22;12678;51.336;12.406;2022-09-01T02:57:10;14.20;99.90
24518;DHT22;12678;51.336;12.406;2022-09-01T02:59:35;14.10;99.90
24518;DHT22;12678;51.336;12.406;2022-09-01T03:02:01;14.00;99.90
24518;DHT22;12678;51.336;12.406;2022-09-01T03:04:27;14.00;99.90
24518;DHT22;12678;51.336;12.406;2022-09-01T03:06:59;14.00;99.90
24518;DHT22;12678;51.336;12.406;2022-09-01T03:09:24;13.90;99.90
24518;DHT22;12678;51.336;12.406;2022-09-01T03:11:51;13.80;99.90
24518;DHT22;12678;51.336;12.406;2022-09-01T03:14:17;13.80;99.90
24518;DHT22;12678;51.336;12.406;2022-09-01T03:16:43;13.90;99.90
24518;DHT22;12678;51.336;12.406;2022-09-01T03:19:08;13.80;99.90
24518;DHT22;12678;51.336;12.406;2022-09-01T03:21:36;13.60;99.90
24518;DHT22;12678;51.336;12.406;2022-09-01T03:24:05;13.60;99.90
24518;DHT22;12678;51.336;12.406;2022-09-01T03:26:31;13.60;99.90
24518;DHT22;12678;51.336;12.406;2022-09-01T03:28:56;13.50;99.90
24518;DHT22;12678;51.336;12.406;2022-09-01T03:31:22;13.40;99.90
24518;DHT22;12678;51.336;12.406;2022-09-01T03:33:51;13.40;99.90
24518;DHT22;12678;51.336;12.406;2022-09-01T03:36:18;13.30;99.90
24518;DHT22;12678;51.336;12.406;2022-09-01T03:38:44;13.30;99.90
24518;DHT22;12678;51.336;12.406;2022-09-01T03:41:12;13.30;99.90
24518;DHT22;12678;51.336;12.406;2022-09-01T03:43:38;13.30;99.90
24518;DHT22;12678;51.336;12.406;2022-09-01T03:46:04;13.30;99.90
24518;DHT22;12678;51.336;12.406;2022-09-01T03:48:29;13.30;99.90
24518;DHT22;12678;51.336;12.406;2022-09-01T03:50:56;13.40;99.90
24518;DHT22;12678;51.336;12.406;2022-09-01T03:53:27;13.30;99.90
24518;DHT22;12678;51.336;12.406;2022-09-01T03:55:53;13.30;99.90
24518;DHT22;12678;51.336;12.406;2022-09-01T03:58:22;13.30;99.90
24518;DHT22;12678;51.336;12.406;2022-09-01T04:00:53;13.30;99.90
24518;DHT22;12678;51.336;12.406;2022-09-01T04:03:20;13.40;99.90
24518;DHT22;12678;51.336;12.406;2022-09-01T04:05:47;13.40;99.90
24518;DHT22;12678;51.336;12.406;2022-09-01T04:08:13;13.40;99.90
24518;DHT22;12678;51.336;12.406;2022-09-01T04:10:43;13.50;99.90
24518;DHT22;12678;51.336;12.406;2022-09-01T04:13:12;13.40;99.90
24518;DHT22;12678;51.336;12.406;2022-09-01T04:15:38;13.40;99.90
24518;DHT22;12678;51.336;12.406;2022-09-01T04:18:04;13.30;99.90
24518;DHT22;12678;51.336;12.406;2022-09-01T04:20:47;13.10;99.90
24518;DHT22;12678;51.336;12.406;2022-09-01T04:25:45;13.10;99.90
24518;DHT22;12678;51.336;12.406;2022-09-01T04:28:11;13.00;99.90
24518;DHT22;12678;51.336;12.406;2022-09-01T04:30:48;12.90;99.90
24518;DHT22;12678;51.336;12.406;2022-09-01T04:33:14;12.80;99.90
24518;DHT22;12678;51.336;12.406;2022-09-01T04:35:41;12.90;99.90
24518;DHT22;12678;51.336;12.406;2022-09-01T04:38:07;12.90;99.90
24518;DHT22;12678;51.336;12.406;2022-09-01T04:40:36;12.90;99.90
24518;DHT22;12678;51.336;12.406;2022-09-01T04:43:03;12.90;99.90
24518;DHT22;12678;51.336;12.406;2022-09-01T04:45:29;12.90;99.90
24518;DHT22;12678;51.336;12.406;2022-09-01T04:47:55;12.90;99.90
24518;DHT22;12678;51.336;12.406;2022-09-01T04:50:21;12.90;99.90
24518;DHT22;12678;51.336;12.406;2022-09-01T04:52:47;13.00;99.90
24518;DHT22;12678;51.336;12.406;2022-09-01T04:55:13;13.10;99.90
24518;DHT22;12678;51.336;12.406;2022-09-01T04:57:42;13.10;99.90
24518;DHT22;12678;51.336;12.406;2022-09-01T05:00:13;13.10;99.90
24518;DHT22;12678;51.336;12.406;2022-09-01T05:02:47;13.20;99.90
24518;DHT22;12678;51.336;12.406;2022-09-01T05:05:13;13.30;99.90
24518;DHT22;12678;51.336;12.406;2022-09-01T05:07:38;13.30;99.90
24518;DHT22;12678;51.336;12.406;2022-09-01T05:10:04;13.20;99.90
24518;DHT22;12678;51.336;12.406;2022-09-01T05:12:29;13.40;99.90
24518;DHT22;12678;51.336;12.406;2022-09-01T05:14:55;13.50;99.90
24518;DHT22;12678;51.336;12.406;2022-09-01T05:17:20;13.60;99.90
24518;DHT22;12678;51.336;12.406;2022-09-01T05:19:46;13.60;99.90
24518;DHT22;12678;51.336;12.406;2022-09-01T05:22:12;13.70;99.90
24518;DHT22;12678;51.336;12.406;2022-09-01T05:24:40;13.70;99.90
24518;DHT22;12678;51.336;12.406;2022-09-01T05:27:06;13.80;99.90
24518;DHT22;12678;51.336;12.406;2022-09-01T05:29:32;13.80;99.90
24518;DHT22;12678;51.336;12.406;2022-09-01T05:31:58;13.90;99.90
24518;DHT22;12678;51.336;12.406;2022-09-01T05:34:24;14.00;99.90
24518;DHT22;12678;51.336;12.406;2022-09-01T05:36:55;14.00;99.90
24518;DHT22;12678;51.336;12.406;2022-09-01T05:39:22;14.00;99.90
24518;DHT22;12678;51.336;12.406;2022-09-01T05:41:49;14.00;99.90
24518;DHT22;12678;51.336;12.406;2022-09-01T05:44:15;14.00;99.90
24518;DHT22;12678;51.336;12.406;2022-09-01T05:46:41;14.10;99.90
24518;DHT22;12678;51.336;12.406;2022-09-01T05:49:09;14.10;99.90
24518;DHT22;12678;51.336;12.406;2022-09-01T05:51:39;14.20;99.90
24518;DHT22;12678;51.336;12.406;2022-09-01T05:54:05;14.30;99.90
24518;DHT22;12678;51.336;12.406;2022-09-01T05:56:33;14.40;99.90
24518;DHT22;12678;51.336;12.406;2022-09-01T05:59:00;14.50;99.90
24518;DHT22;12678;51.336;12.406;2022-09-01T06:01:27;14.70;99.90
24518;DHT22;12678;51.336;12.406;2022-09-01T06:03:55;14.60;99.90
24518;DHT22;12678;51.336;12.406;2022-09-01T06:06:21;14.70;99.90
24518;DHT22;12678;51.336;12.406;2022-09-01T06:08:50;14.70;99.90
24518;DHT22;12678;51.336;12.406;2022-09-01T06:11:16;14.80;99.90
24518;DHT22;12678;51.336;12.406;2022-09-01T06:13:43;14.90;99.90
24518;DHT22;12678;51.336;12.406;2022-09-01T06:16:09;15.00;99.90
24518;DHT22;12678;51.336;12.406;2022-09-01T06:18:37;15.10;99.90
24518;DHT22;12678;51.336;12.406;2022-09-01T06:21:03;15.10;99.90
24518;DHT22;12678;51.336;12.406;2022-09-01T06:23:29;15.20;99.90
24518;DHT22;12678;51.336;12.406;2022-09-01T06:25:55;15.50;99.90
24518;DHT22;12678;51.336;12.406;2022-09-01T06:28:21;15.60;99.90
24518;DHT22;12678;51.336;12.406;2022-09-01T06:30:48;15.60;99.90
24518;DHT22;12678;51.336;12.406;2022-09-01T06:33:14;15.50;99.90
24518;DHT22;12678;51.336;12.406;2022-09-01T06:35:40;15.50;99.90
24518;DHT22;12678;51.336;12.406;2022-09-01T06:38:07;15.70;99.90
24518;DHT22;12678;51.336;12.406;2022-09-01T06:40:33;15.80;99.90
24518;DHT22;12678;51.336;12.406;2022-09-01T06:43:00;15.80;99.90
24518;DHT22;12678;51.336;12.406;2022-09-01T06:45:33;16.30;99.90
24518;DHT22;12678;51.336;12.406;2022-09-01T06:47:59;16.60;99.90
24518;DHT22;12678;51.336;12.406;2022-09-01T06:50:24;16.50;99.90
24518;DHT22;12678;51.336;12.406;2022-09-01T06:52:52;16.40;99.90
24518;DHT22;12678;51.336;12.406;2022-09-01T06:55:35;16.50;99.90
24518;DHT22;12678;51.336;12.406;2022-09-01T06:58:05;16.40;99.90
24518;DHT22;12678;51.336;12.406;2022-09-01T07:00:32;16.50;99.90
24518;DHT22;12678;51.336;12.406;2022-09-01T07:02:59;16.50;99.90
24518;DHT22;12678;51.336;12.406;2022-09-01T07:05:32;16.60;99.90
24518;DHT22;12678;51.336;12.406;2022-09-01T07:07:58;16.40;99.90
24518;DHT22;12678;51.336;12.406;2022-09-01T07:10:24;16.20;99.90
24518;DHT22;12678;51.336;12.406;2022-09-01T07:12:51;16.50;99.90
24518;DHT22;12678;51.336;12.406;2022-09-01T07:15:17;16.50;99.90
24518;DHT22;12678;51.336;12.406;2022-09-01T07:17:51;16.50;99.90
24518;DHT22;12678;51.336;12.406;2022-09-01T07:20:18;16.70;99.90
24518;DHT22;12678;51.336;12.406;2022-09-01T07:22:45;17.00;99.90
24518;DHT22;12678;51.336;12.406;2022-09-01T07:25:11;16.90;99.90
24518;DHT22;12678;51.336;12.406;2022-09-01T07:27:38;17.00;99.90
24518;DHT22;12678;51.336;12.406;2022-09-01T07:30:03;17.30;99.90
24518;DHT22;12678;51.336;12.406;2022-09-01T07:32:31;17.40;99.90
24518;DHT22;12678;51.336;12.406;2022-09-01T07:34:57;17.70;99.90
24518;DHT22;12678;51.336;12.406;2022-09-01T07:39:52;18.20;99.90
24518;DHT22;12678;51.336;12.406;2022-09-01T07:42:18;19.80;99.90
24518;DHT22;12678;51.336;12.406;2022-09-01T07:44:44;20.10;99.90
24518;DHT22;12678;51.336;12.406;2022-09-01T07:47:09;19.20;99.90
24518;DHT22;12678;51.336;12.406;2022-09-01T07:49:35;18.90;99.90
24518;DHT22;12678;51.336;12.406;2022-09-01T07:52:05;18.70;99.90
24518;DHT22;12678;51.336;12.406;2022-09-01T07:54:31;18.60;99.90
24518;DHT22;12678;51.336;12.406;2022-09-01T07:56:58;18.50;99.90
24518;DHT22;12678;51.336;12.406;2022-09-01T07:59:23;18.40;99.90
24518;DHT22;12678;51.336;12.406;2022-09-01T08:01:50;18.20;99.90
24518;DHT22;12678;51.336;12.406;2022-09-01T08:04:16;18.50;99.90
24518;DHT22;12678;51.336;12.406;2022-09-01T08:06:47;18.40;99.90
24518;DHT22;12678;51.336;12.406;2022-09-01T08:09:12;18.20;99.90
24518;DHT22;12678;51.336;12.406;2022-09-01T08:11:38;18.10;99.90
24518;DHT22;12678;51.336;12.406;2022-09-01T08:14:03;18.20;99.90
24518;DHT22;12678;51.336;12.406;2022-09-01T08:16:29;18.10;99.90
24518;DHT22;12678;51.336;12.406;2022-09-01T08:18:55;17.90;99.90
24518;DHT22;12678;51.336;12.406;2022-09-01T08:21:21;18.00;99.90
24518;DHT22;12678;51.336;12.406;2022-09-01T08:23:51;18.10;99.90
24518;DHT22;12678;51.336;12.406;2022-09-01T08:26:18;18.20;99.90
24518;DHT22;12678;51.336;12.406;2022-09-01T08:28:44;18.50;99.90
24518;DHT22;12678;51.336;12.406;2022-09-01T08:31:11;18.80;99.90
24518;DHT22;12678;51.336;12.406;2022-09-01T08:33:37;19.00;99.90
24518;DHT22;12678;51.336;12.406;2022-09-01T08:36:03;19.20;99.90
24518;DHT22;12678;51.336;12.406;2022-09-01T08:38:28;19.30;99.90
24518;DHT22;12678;51.336;12.406;2022-09-01T08:40:55;19.60;99.90
24518;DHT22;12678;51.336;12.406;2022-09-01T08:48:19;20.10;99.90
24518;DHT22;12678;51.336;12.406;2022-09-01T08:50:48;20.00;99.90
24518;DHT22;12678;51.336;12.406;2022-09-01T08:53:26;19.90;99.90
24518;DHT22;12678;51.336;12.406;2022-09-01T08:55:56;20.20;99.90
24518;DHT22;12678;51.336;12.406;2022-09-01T08:58:22;20.40;99.90
24518;DHT22;12678;51.336;12.406;2022-09-01T09:00:54;20.40;99.90
24518;DHT22;12678;51.336;12.406;2022-09-01T09:03:25;20.40;99.90
24518;DHT22;12678;51.336;12.406;2022-09-01T09:06:13;20.40;99.90
24518;DHT22;12678;51.336;12.406;2022-09-01T09:16:31;20.00;99.90
24518;DHT22;12678;51.336;12.406;2022-09-01T09:19:00;20.00;99.90
24518;DHT22;12678;51.336;12.406;2022-09-01T09:21:36;20.50;99.90
24518;DHT22;12678;51.336;12.406;2022-09-01T11:57:40;21.20;99.90
24518;DHT22;12678;51.336;12.406;2022-09-01T12:00:07;21.40;90.80
24518;DHT22;12678;51.336;12.406;2022-09-01T12:02:34;21.40;91.30
24518;DHT22;12678;51.336;12.406;2022-09-01T12:05:01;21.40;90.40
24518;DHT22;12678;51.336;12.406;2022-09-01T12:07:36;21.30;91.20
24518;DHT22;12678;51.336;12.406;2022-09-01T12:10:02;21.30;91.40
24518;DHT22;12678;51.336;12.406;2022-09-01T12:27:04;21.20;91.60
24518;DHT22;12678;51.336;12.406;2022-09-01T12:29:30;21.10;92.50
24518;DHT22;12678;51.336;12.406;2022-09-01T12:31:57;21.20;92.20
24518;DHT22;12678;51.336;12.406;2022-09-01T12:37:01;21.40;91.30
24518;DHT22;12678;51.336;12.406;2022-09-01T12:39:32;21.30;91.20
24518;DHT22;12678;51.336;12.406;2022-09-01T12:44:31;21.50;91.30
24518;DHT22;12678;51.336;12.406;2022-09-01T12:46:58;21.60;90.20
24518;DHT22;12678;51.336;12.406;2022-09-01T12:49:46;21.60;88.10
24518;DHT22;12678;51.336;12.406;2022-09-01T12:54:43;21.60;87.10
24518;DHT22;12678;51.336;12.406;2022-09-01T12:57:09;21.70;86.50
24518;DHT22;12678;51.336;12.406;2022-09-01T12:59:35;21.60;84.90
24518;DHT22;12678;51.336;12.406;2022-09-01T13:04:45;21.60;82.20
24518;DHT22;12678;51.336;12.406;2022-09-01T13:07:10;21.50;83.00
24518;DHT22;12678;51.336;12.406;2022-09-01T13:09:36;21.50;83.90
24518;DHT22;12678;51.336;12.406;2022-09-01T13:12:20;21.60;83.00
24518;DHT22;12678;51.336;12.406;2022-09-01T13:14:45;21.80;85.20
24518;DHT22;12678;51.336;12.406;2022-09-01T13:17:11;22.00;81.40
24518;DHT22;12678;51.336;12.406;2022-09-01T13:19:37;22.20;84.10
24518;DHT22;12678;51.336;12.406;2022-09-01T13:22:03;22.30;83.60
24518;DHT22;12678;51.336;12.406;2022-09-01T13:24:29;22.40;80.60
24518;DHT22;12678;51.336;12.406;2022-09-01T13:26:54;22.30;80.80
24518;DHT22;12678;51.336;12.406;2022-09-01T13:29:22;22.30;76.30
24518;DHT22;12678;51.336;12.406;2022-09-01T13:31:47;22.20;76.70
24518;DHT22;12678;51.336;12.406;2022-09-01T13:34:13;22.10;77.00
24518;DHT22;12678;51.336;12.406;2022-09-01T13:36:39;22.00;77.30
24518;DHT22;12678;51.336;12.406;2022-09-01T13:39:04;22.00;77.00
24518;DHT22;12678;51.336;12.406;2022-09-01T13:41:30;22.00;77.00
24518;DHT22;12678;51.336;12.406;2022-09-01T13:43:56;22.00;75.40
24518;DHT22;12678;51.336;12.406;2022-09-01T13:46:22;21.90;77.80
24518;DHT22;12678;51.336;12.406;2022-09-01T13:48:47;22.00;78.90
24518;DHT22;12678;51.336;12.406;2022-09-01T13:51:12;22.10;79.90
24518;DHT22;12678;51.336;12.406;2022-09-01T13:53:50;22.10;80.10
24518;DHT22;12678;51.336;12.406;2022-09-01T13:56:15;22.00;78.00
24518;DHT22;12678;51.336;12.406;2022-09-01T13:58:41;22.00;79.40
24518;DHT22;12678;51.336;12.406;2022-09-01T14:01:06;22.10;79.80
24518;DHT22;12678;51.336;12.406;2022-09-01T14:03:32;22.10;79.00
24518;DHT22;12678;51.336;12.406;2022-09-01T14:05:57;22.10;78.70
24518;DHT22;12678;51.336;12.406;2022-09-01T14:08:23;22.10;80.20
24518;DHT22;12678;51.336;12.406;2022-09-01T14:10:49;22.10;79.30
24518;DHT22;12678;51.336;12.406;2022-09-01T14:13:16;22.00;79.50
24518;DHT22;12678;51.336;12.406;2022-09-01T14:15:41;22.00;81.00
24518;DHT22;12678;51.336;12.406;2022-09-01T14:18:07;21.80;81.10
24518;DHT22;12678;51.336;12.406;2022-09-01T14:20:34;21.80;82.50
24518;DHT22;12678;51.336;12.406;2022-09-01T14:23:03;21.70;83.10
24518;DHT22;12678;51.336;12.406;2022-09-01T14:25:30;21.60;82.40
24518;DHT22;12678;51.336;12.406;2022-09-01T14:27:57;21.60;82.50
24518;DHT22;12678;51.336;12.406;2022-09-01T14:30:26;21.60;83.20
24518;DHT22;12678;51.336;12.406;2022-09-01T14:32:52;21.60;83.70
24518;DHT22;12678;51.336;12.406;2022-09-01T14:35:18;21.60;82.70
24518;DHT22;12678;51.336;12.406;2022-09-01T14:37:44;21.60;81.90
24518;DHT22;12678;51.336;12.406;2022-09-01T14:40:11;21.70;84.60
24518;DHT22;12678;51.336;12.406;2022-09-01T14:42:39;21.70;81.90
24518;DHT22;12678;51.336;12.406;2022-09-01T14:45:05;21.70;81.50
24518;DHT22;12678;51.336;12.406;2022-09-01T14:47:31;21.60;81.90
24518;DHT22;12678;51.336;12.406;2022-09-01T14:49:56;21.60;82.20
24518;DHT22;12678;51.336;12.406;2022-09-01T14:52:22;21.60;81.00
24518;DHT22;12678;51.336;12.406;2022-09-01T14:54:47;21.70;80.40
24518;DHT22;12678;51.336;12.406;2022-09-01T14:57:13;21.60;80.40
24518;DHT22;12678;51.336;12.406;2022-09-01T14:59:39;21.60;80.70
24518;DHT22;12678;51.336;12.406;2022-09-01T15:02:06;21.60;80.50
24518;DHT22;12678;51.336;12.406;2022-09-01T15:04:32;21.60;80.70
24518;DHT22;12678;51.336;12.406;2022-09-01T15:06:58;21.60;80.70
24518;DHT22;12678;51.336;12.406;2022-09-01T15:38:35;21.60;78.30
24518;DHT22;12678;51.336;12.406;2022-09-01T15:41:01;21.60;83.20
24518;DHT22;12678;51.336;12.406;2022-09-01T15:43:27;21.40;83.50
24518;DHT22;12678;51.336;12.406;2022-09-01T15:45:52;21.40;83.60
24518;DHT22;12678;51.336;12.406;2022-09-01T15:48:18;21.40;83.00
24518;DHT22;12678;51.336;12.406;2022-09-01T15:50:43;21.40;84.00
24518;DHT22;12678;51.336;12.406;2022-09-01T15:53:09;21.40;82.20
24518;DHT22;12678;51.336;12.406;2022-09-01T15:55:41;21.40;82.40
24518;DHT22;12678;51.336;12.406;2022-09-01T15:58:08;21.30;81.80
24518;DHT22;12678;51.336;12.406;2022-09-01T16:00:34;21.30;81.80
24518;DHT22;12678;51.336;12.406;2022-09-01T16:02:59;21.30;82.80
24518;DHT22;12678;51.336;12.406;2022-09-01T16:05:29;21.30;82.60
24518;DHT22;12678;51.336;12.406;2022-09-01T16:07:54;21.20;82.40
24518;DHT22;12678;51.336;12.406;2022-09-01T16:10:20;21.20;82.80
24518;DHT22;12678;51.336;12.406;2022-09-01T16:12:46;21.10;83.00
24518;DHT22;12678;51.336;12.406;2022-09-01T16:15:19;21.10;82.70
24518;DHT22;12678;51.336;12.406;2022-09-01T16:20:33;21.10;84.60
24518;DHT22;12678;51.336;12.406;2022-09-01T16:23:13;21.20;85.30
24518;DHT22;12678;51.336;12.406;2022-09-01T16:25:38;21.10;84.20
24518;DHT22;12678;51.336;12.406;2022-09-01T16:28:39;21.00;82.70
24518;DHT22;12678;51.336;12.406;2022-09-01T16:31:14;21.00;83.40
24518;DHT22;12678;51.336;12.406;2022-09-01T16:33:53;20.90;83.60
24518;DHT22;12678;51.336;12.406;2022-09-01T16:39:00;20.80;84.70
24518;DHT22;12678;51.336;12.406;2022-09-01T16:44:15;20.80;86.10
24518;DHT22;12678;51.336;12.406;2022-09-01T16:46:45;20.70;86.30
24518;DHT22;12678;51.336;12.406;2022-09-01T17:04:57;20.50;88.10
24518;DHT22;12678;51.336;12.406;2022-09-01T17:07:31;20.50;88.20
24518;DHT22;12678;51.336;12.406;2022-09-01T17:12:49;20.60;90.10
24518;DHT22;12678;51.336;12.406;2022-09-01T17:15:24;20.60;89.40
24518;DHT22;12678;51.336;12.406;2022-09-01T17:18:04;20.50;89.70
24518;DHT22;12678;51.336;12.406;2022-09-01T17:20:34;20.40;90.00
24518;DHT22;12678;51.336;12.406;2022-09-01T17:23:00;20.40;90.60
24518;DHT22;12678;51.336;12.406;2022-09-01T17:25:36;20.40;90.60
24518;DHT22;12678;51.336;12.406;2022-09-01T17:30:32;20.30;90.30
24518;DHT22;12678;51.336;12.406;2022-09-01T17:38:23;20.10;90.70
24518;DHT22;12678;51.336;12.406;2022-09-01T17:41:12;20.20;91.10
24518;DHT22;12678;51.336;12.406;2022-09-01T17:51:41;19.90;92.40
24518;DHT22;12678;51.336;12.406;2022-09-01T17:54:16;19.80;92.70
24518;DHT22;12678;51.336;12.406;2022-09-01T18:09:51;19.50;94.20
24518;DHT22;12678;51.336;12.406;2022-09-01T18:12:18;19.40;94.60
24518;DHT22;12678;51.336;12.406;2022-09-01T18:17:14;19.40;95.10
24518;DHT22;12678;51.336;12.406;2022-09-01T18:19:44;19.40;95.20
24518;DHT22;12678;51.336;12.406;2022-09-01T18:22:13;19.40;95.20
24518;DHT22;12678;51.336;12.406;2022-09-01T18:27:16;19.40;95.50
24518;DHT22;12678;51.336;12.406;2022-09-01T18:29:42;19.40;95.80
24518;DHT22;12678;51.336;12.406;2022-09-01T18:32:14;19.40;96.10
24518;DHT22;12678;51.336;12.406;2022-09-01T18:58:15;19.20;98.50
24518;DHT22;12678;51.336;12.406;2022-09-01T19:00:50;19.30;98.00
24518;DHT22;12678;51.336;12.406;2022-09-01T19:04:03;19.20;98.00
24518;DHT22;12678;51.336;12.406;2022-09-01T19:08:46;19.00;98.80
24518;DHT22;12678;51.336;12.406;2022-09-01T19:18:57;18.70;99.30
24518;DHT22;12678;51.336;12.406;2022-09-01T19:21:26;18.60;99.90
24518;DHT22;12678;51.336;12.406;2022-09-01T19:26:38;18.50;99.90
24518;DHT22;12678;51.336;12.406;2022-09-01T19:29:09;18.40;99.90
24518;DHT22;12678;51.336;12.406;2022-09-01T19:31:40;18.20;99.90
24518;DHT22;12678;51.336;12.406;2022-09-01T19:34:12;18.20;99.90
24518;DHT22;12678;51.336;12.406;2022-09-01T19:36:43;18.20;99.90
24518;DHT22;12678;51.336;12.406;2022-09-01T19:39:14;18.30;99.90
24518;DHT22;12678;51.336;12.406;2022-09-01T19:41:50;18.30;99.90
24518;DHT22;12678;51.336;12.406;2022-09-01T19:46:50;18.40;99.90
24518;DHT22;12678;51.336;12.406;2022-09-01T19:52:49;18.30;99.90
24518;DHT22;12678;51.336;12.406;2022-09-01T19:54:59;18.40;99.90
24518;DHT22;12678;51.336;12.406;2022-09-01T19:57:28;18.60;99.90
24518;DHT22;12678;51.336;12.406;2022-09-01T19:59:59;18.80;99.90
24518;DHT22;12678;51.336;12.406;2022-09-01T20:02:33;18.90;99.90
24518;DHT22;12678;51.336;12.406;2022-09-01T20:05:05;18.70;99.90
24518;DHT22;12678;51.336;12.406;2022-09-01T20:07:36;18.70;99.90
24518;DHT22;12678;51.336;12.406;2022-09-01T20:12:39;18.40;99.90
24518;DHT22;12678;51.336;12.406;2022-09-01T20:15:12;18.30;99.90
24518;DHT22;12678;51.336;12.406;2022-09-01T20:18:02;18.30;99.90
24518;DHT22;12678;51.336;12.406;2022-09-01T20:20:33;18.20;99.90
24518;DHT22;12678;51.336;12.406;2022-09-01T20:25:49;18.30;99.90
24518;DHT22;12678;51.336;12.406;2022-09-01T20:28:28;18.40;99.90
24518;DHT22;12678;51.336;12.406;2022-09-01T20:30:57;18.40;99.90
24518;DHT22;12678;51.336;12.406;2022-09-01T20:33:29;18.20;99.90
24518;DHT22;12678;51.336;12.406;2022-09-01T20:36:18;18.10;99.90
24518;DHT22;12678;51.336;12.406;2022-09-01T20:38:48;18.00;99.90
24518;DHT22;12678;51.336;12.406;2022-09-01T20:41:39;18.10;99.90
24518;DHT22;12678;51.336;12.406;2022-09-01T20:44:09;18.20;99.90
24518;DHT22;12678;51.336;12.406;2022-09-01T20:46:39;18.00;99.90
24518;DHT22;12678;51.336;12.406;2022-09-01T20:49:04;17.80;99.90
24518;DHT22;12678;51.336;12.406;2022-09-01T20:54:23;18.00;99.90
24518;DHT22;12678;51.336;12.406;2022-09-01T20:59:17;17.90;99.90
24518;DHT22;12678;51.336;12.406;2022-09-01T21:01:52;17.90;99.90
24518;DHT22;12678;51.336;12.406;2022-09-01T21:04:30;18.00;99.90
24518;DHT22;12678;51.336;12.406;2022-09-01T21:12:08;18.10;99.90